Time;durP1;ratioP1;P1;durP2;ratioP2;P2;SDS_P1;SDS_P2;PMS_P1;PMS_P2;Temp;Humidity;BMP_temperature;BMP_pressure;BME280_temperature;BME280_humidity;BME280_pressure;Samples;Min_cycle;Max_cycle;Signal;HPM_P1;HPM_P2
2022/08/08 00:01:57;;;;;;;25.67;19.92;;;;;;;18.03;100.00;95067.38;5055181;28;20048;-71
2022/08/08 00:04:47;;;;;;;22.42;17.23;;;;;;;17.89;100.00;95066.38;5053475;28;20051;-70
2022/08/08 00:07:27;;;;;;;;;;;;;;;17.82;100.00;95071.91;5055867;28;20531;-71
2022/08/08 00:10:10;;;;;;;30.33;19.08;;;;;;;17.69;100.00;95062.75;5054458;28;19931;-71
2022/08/08 00:12:54;;;;;;;36.63;25.38;;;;;;;17.70;100.00;95064.34;5039363;28;20040;-70
2022/08/08 00:15:25;;;;;;;;;;;;;;;17.61;100.00;95060.69;5052466;28;20037;-70
2022/08/08 00:18:22;;;;;;;53.83;33.67;;;;;;;17.49;100.00;95054.94;5052368;28;19928;-71
2022/08/08 00:20:56;;;;;;;60.75;34.88;;;;;;;17.37;100.00;95056.00;5056833;28;20540;-71
2022/08/08 00:23:49;;;;;;;45.90;29.25;;;;;;;17.37;100.00;95071.81;5043827;28;20484;-71
2022/08/08 00:26:28;;;;;;;39.97;26.80;;;;;;;17.28;100.00;95057.63;5053962;28;20519;-70
2022/08/08 00:29:10;;;;;;;41.83;28.85;;;;;;;17.27;100.00;95077.09;5056684;28;20040;-70
2022/08/08 00:31:46;;;;;;;39.40;27.90;;;;;;;17.23;100.00;95065.53;5054434;28;20138;-70
2022/08/08 00:35:17;;;;;;;40.60;27.50;;;;;;;17.08;100.00;95041.88;5037509;28;20044;-71
2022/08/08 00:37:49;;;;;;;34.78;22.30;;;;;;;17.20;100.00;95071.34;5028253;28;20106;-70
2022/08/08 00:40:27;;;;;;;25.25;18.20;;;;;;;17.21;100.00;95067.63;5058024;28;20152;-70
2022/08/08 00:43:51;;;;;;;20.10;14.60;;;;;;;17.18;100.00;95068.19;5057019;28;20048;-70
2022/08/08 00:46:47;;;;;;;22.13;15.68;;;;;;;17.15;100.00;95073.97;5053242;28;20037;-70
2022/08/08 00:49:58;;;;;;;17.17;13.93;;;;;;;17.14;100.00;95072.38;5037436;28;20055;-71
2022/08/08 00:52:50;;;;;;;20.63;13.90;;;;;;;17.13;100.00;95087.38;5038829;28;20052;-71
2022/08/08 00:55:29;;;;;;;17.75;13.30;;;;;;;17.03;100.00;95073.47;5037546;28;20076;-71
2022/08/08 00:58:08;;;;;;;16.65;13.65;;;;;;;16.96;100.00;95081.63;5024964;28;20075;-70
2022/08/08 01:00:50;;;;;;;16.42;12.65;;;;;;;16.91;100.00;95085.06;5039211;28;20044;-71
2022/08/08 01:03:53;;;;;;;20.00;11.88;;;;;;;16.87;100.00;95086.63;5040827;28;20045;-71
2022/08/08 01:07:09;;;;;;;17.65;12.57;;;;;;;16.83;100.00;95088.19;5037147;28;20135;-70
2022/08/08 01:10:30;;;;;;;17.02;12.30;;;;;;;16.78;100.00;95088.16;5038278;28;20135;-70
2022/08/08 01:13:00;;;;;;;;;;;;;;;16.70;100.00;95091.34;4993854;28;20140;-70
2022/08/08 01:15:28;;;;;;;13.65;10.45;;;;;;;16.57;100.00;95096.06;4992778;28;20020;-70
2022/08/08 01:18:36;;;;;;;14.93;11.75;;;;;;;16.62;100.00;95088.19;5034821;28;20049;-70
2022/08/08 01:22:01;;;;;;;17.83;11.80;;;;;;;16.64;100.00;95085.28;5035028;28;20052;-70
2022/08/08 01:24:49;;;;;;;19.40;12.18;;;;;;;16.71;100.00;95095.53;5023993;28;20037;-71
2022/08/08 01:27:42;;;;;;;18.77;12.27;;;;;;;16.70;100.00;95078.19;5028556;28;20040;-71
2022/08/08 01:30:19;;;;;;;;;;;;;;;16.73;100.00;95077.66;5007594;28;20135;-70
2022/08/08 01:33:14;;;;;;;17.95;12.40;;;;;;;16.76;100.00;95087.66;5030936;28;19956;-71
2022/08/08 01:36:38;;;;;;;17.10;11.77;;;;;;;16.72;100.00;95086.59;5041690;28;20041;-71
2022/08/08 01:39:38;;;;;;;17.20;13.50;;;;;;;16.72;100.00;95087.38;5036533;28;20078;-70
2022/08/08 01:42:29;;;;;;;20.42;13.55;;;;;;;16.65;100.00;95075.56;5044064;28;20051;-70
2022/08/08 01:45:13;;;;;;;21.42;14.40;;;;;;;16.68;100.00;95086.34;5039883;28;20057;-70
2022/08/08 01:48:04;;;;;;;18.95;12.80;;;;;;;16.61;100.00;95057.66;5048195;28;20442;-70
2022/08/08 01:51:21;;;;;;;18.67;13.15;;;;;;;16.76;100.00;95092.91;5040472;28;20037;-71
2022/08/08 01:54:18;;;;;;;17.17;12.48;;;;;;;16.63;100.00;95084.47;5044113;28;20038;-70
2022/08/08 01:57:23;;;;;;;18.55;13.18;;;;;;;16.72;100.00;95091.88;5038210;28;20040;-70
2022/08/08 02:00:26;;;;;;;15.27;11.85;;;;;;;16.68;100.00;95085.56;5040504;28;20068;-70
2022/08/08 02:03:43;;;;;;;19.17;13.15;;;;;;;16.65;100.00;95091.34;5056042;28;20787;-71
2022/08/08 02:06:41;;;;;;;17.10;12.90;;;;;;;16.56;100.00;95094.47;5025041;28;20055;-71
2022/08/08 02:09:26;;;;;;;18.27;13.40;;;;;;;16.49;100.00;95091.31;5046538;28;20518;-71
2022/08/08 02:12:29;;;;;;;21.40;13.43;;;;;;;16.47;100.00;95096.03;5035766;28;20128;-71
2022/08/08 02:15:44;;;;;;;16.00;12.15;;;;;;;16.34;100.00;95099.19;5037965;28;20044;-70
2022/08/08 02:18:39;;;;;;;19.45;12.95;;;;;;;16.27;100.00;95106.53;4963898;28;20049;-71
2022/08/08 02:24:33;;;;;;;15.13;11.68;;;;;;;16.10;100.00;95094.41;5041978;28;20040;-70
2022/08/08 02:27:09;;;;;;;18.67;13.48;;;;;;;15.95;100.00;95100.38;5038723;28;20040;-70
2022/08/08 02:30:01;;;;;;;15.98;11.95;;;;;;;15.92;100.00;95100.09;5042017;28;20045;-71
2022/08/08 02:33:14;;;;;;;23.20;13.27;;;;;;;15.83;100.00;95098.00;5045990;28;20530;-70
2022/08/08 02:36:11;;;;;;;20.98;13.43;;;;;;;15.83;100.00;95103.25;5060363;28;20040;-70
2022/08/08 02:38:46;;;;;;;21.23;14.07;;;;;;;15.77;100.00;95104.28;5044758;28;20049;-71
2022/08/08 02:41:39;;;;;;;19.65;13.48;;;;;;;15.81;100.00;95107.97;5040913;28;20052;-71
2022/08/08 02:45:01;;;;;;;19.50;13.35;;;;;;;15.84;100.00;95099.56;5064504;28;20290;-70
2022/08/08 02:48:01;;;;;;;21.50;13.13;;;;;;;15.86;100.00;95109.81;5061506;28;20056;-70
2022/08/08 02:50:58;;;;;;;19.25;14.35;;;;;;;15.86;100.00;95108.00;5061663;28;20033;-70
2022/08/08 02:54:06;;;;;;;19.27;12.93;;;;;;;15.84;100.00;95115.31;5056305;28;20800;-71
2022/08/08 02:56:53;;;;;;;23.45;13.23;;;;;;;15.83;100.00;95105.88;5018618;28;20083;-70
2022/08/08 02:59:39;;;;;;;20.45;14.40;;;;;;;15.85;100.00;95111.66;5038264;28;20327;-70
2022/08/08 03:02:34;;;;;;;25.65;14.10;;;;;;;15.79;100.00;95107.44;5039258;28;20037;-70
2022/08/08 03:05:30;;;;;;;21.10;15.20;;;;;;;15.76;100.00;95118.44;5040350;28;20167;-71
2022/08/08 03:08:41;;;;;;;25.27;15.10;;;;;;;15.73;100.00;95108.41;5039285;28;20056;-71
2022/08/08 03:11:39;;;;;;;21.83;14.25;;;;;;;15.68;100.00;95105.75;5064851;28;20044;-70
2022/08/08 03:14:54;;;;;;;20.00;14.95;;;;;;;15.58;100.00;95111.78;5044321;28;20529;-71
2022/08/08 03:18:02;;;;;;;23.10;16.90;;;;;;;15.61;100.00;95115.72;5054128;28;20036;-71
2022/08/08 03:21:00;;;;;;;27.42;16.17;;;;;;;15.65;100.00;95112.34;5033008;28;20129;-71
2022/08/08 03:23:36;;;;;;;21.25;15.70;;;;;;;15.61;100.00;95120.97;5039641;28;20048;-70
2022/08/08 03:26:31;;;;;;;23.60;15.63;;;;;;;15.60;100.00;95122.03;5043170;28;20033;-70
2022/08/08 03:29:16;;;;;;;24.23;17.50;;;;;;;15.53;100.00;95114.38;5034632;28;20064;-70
2022/08/08 03:35:28;;;;;;;27.52;18.15;;;;;;;15.58;100.00;95116.25;4962477;28;20064;-70
2022/08/08 03:38:01;;;;;;;26.95;19.00;;;;;;;15.62;100.00;95117.31;5037164;28;20044;-71
2022/08/08 03:40:52;;;;;;;32.40;20.73;;;;;;;15.63;100.00;95121.53;5036602;28;20040;-70
2022/08/08 03:43:23;;;;;;;38.88;23.83;;;;;;;15.59;100.00;95109.94;5035183;28;20492;-70
2022/08/08 03:46:05;;;;;;;36.83;23.65;;;;;;;15.66;100.00;95128.88;5043589;28;20057;-71
2022/08/08 03:48:39;;;;;;;33.75;24.98;;;;;;;15.58;100.00;95117.03;5057764;28;20071;-70
2022/08/08 03:51:34;;;;;;;30.23;21.48;;;;;;;15.72;100.00;95127.88;5039791;28;20040;-70
2022/08/08 03:54:19;;;;;;;29.58;22.15;;;;;;;15.71;100.00;95126.28;5039585;28;20352;-70
2022/08/08 03:57:14;;;;;;;29.05;19.67;;;;;;;15.78;100.00;95132.09;5035131;28;20750;-69
2022/08/08 04:00:01;;;;;;;;;;;;;;;15.83;100.00;95128.72;5036402;28;20045;-70
2022/08/08 04:02:55;;;;;;;21.52;14.75;;;;;;;15.90;100.00;95128.47;5036391;28;20039;-70
2022/08/08 04:05:27;;;;;;;21.02;15.32;;;;;;;15.84;100.00;95120.56;5053730;28;20442;-70
2022/08/08 04:08:02;;;;;;;23.48;15.60;;;;;;;16.01;100.00;95135.38;5036026;28;20044;-70
2022/08/08 04:10:31;;;;;;;42.00;16.45;;;;;;;15.90;100.00;95107.47;5033884;28;20160;-70
2022/08/08 04:13:02;;;;;;;24.23;17.30;;;;;;;16.20;100.00;95133.81;5036845;28;20056;-71
2022/08/08 04:15:48;;;;;;;26.13;18.52;;;;;;;16.40;100.00;95142.81;5053880;28;20562;-71
2022/08/08 04:18:31;;;;;;;22.70;17.08;;;;;;;16.52;100.00;95145.22;5034787;28;20123;-71
2022/08/08 04:21:07;;;;;;;20.70;15.82;;;;;;;16.63;100.00;95147.59;5051667;28;20060;-70
2022/08/08 04:23:37;;;;;;;28.67;17.70;;;;;;;16.79;100.00;95150.25;5035074;28;20048;-70
2022/08/08 04:26:23;;;;;;;24.85;17.30;;;;;;;16.93;100.00;95146.09;5039587;28;20044;-71
2022/08/08 04:28:52;;;;;;;25.65;17.45;;;;;;;17.06;100.00;95143.97;5037938;28;20044;-70
2022/08/08 04:31:20;;;;;;;25.27;17.23;;;;;;;17.11;100.00;95151.88;5031216;28;20040;-70
2022/08/08 04:34:07;;;;;;;22.08;16.48;;;;;;;17.18;100.00;95157.66;5052748;28;20049;-70
2022/08/08 04:36:34;;;;;;;22.30;14.52;;;;;;;17.15;100.00;95152.91;5036499;28;20040;-70
2022/08/08 04:39:02;;;;;;;24.25;15.48;;;;;;;17.20;100.00;95155.56;5053524;28;20087;-71
2022/08/08 04:41:49;;;;;;;23.52;15.93;;;;;;;17.17;100.00;95161.34;5053214;28;20037;-71
2022/08/08 04:44:16;;;;;;;23.20;15.57;;;;;;;17.20;100.00;95155.56;5033876;28;20048;-71
2022/08/08 04:46:46;;;;;;;24.27;16.40;;;;;;;17.26;100.00;95151.84;5030055;28;20504;-71
2022/08/08 04:49:19;;;;;;;21.30;16.77;;;;;;;17.38;100.00;95168.16;5019272;28;20135;-71
2022/08/08 04:51:54;;;;;;;23.40;16.90;;;;;;;17.50;100.00;95167.91;5039837;28;20170;-71
2022/08/08 04:54:24;;;;;;;21.25;16.17;;;;;;;17.64;100.00;95170.75;5034050;28;20519;-71
2022/08/08 04:57:08;;;;;;;19.90;15.40;;;;;;;17.70;100.00;95164.44;5050331;28;20041;-71
2022/08/08 04:59:37;;;;;;;30.65;16.77;;;;;;;17.87;100.00;95177.31;5043685;28;20523;-71
2022/08/08 05:02:09;;;;;;;31.80;17.95;;;;;;;17.86;100.00;95167.84;5036397;28;20072;-71
2022/08/08 05:04:41;;;;;;;20.20;15.52;;;;;;;18.12;100.00;95171.16;5031791;28;20052;-71
2022/08/08 05:07:11;;;;;;;21.95;13.77;;;;;;;18.23;100.00;95165.84;5035274;28;20040;-71
2022/08/08 05:09:41;;;;;;;22.95;14.80;;;;;;;18.43;100.00;95171.03;5037807;28;20522;-71
2022/08/08 05:12:09;;;;;;;21.40;14.48;;;;;;;18.59;100.00;95178.88;5055334;28;20048;-71
2022/08/08 05:14:48;;;;;;;18.98;13.82;;;;;;;18.64;100.00;95170.94;5036739;28;20052;-71
2022/08/08 05:17:18;;;;;;;18.38;13.38;;;;;;;18.78;100.00;95165.81;5035067;28;20032;-72
2022/08/08 05:19:47;;;;;;;19.35;13.38;;;;;;;18.89;100.00;95183.97;5036231;28;20048;-72
2022/08/08 05:22:37;;;;;;;18.80;14.00;;;;;;;18.96;100.00;95177.59;5039025;28;20067;-71
2022/08/08 05:25:05;;;;;;;15.85;13.52;;;;;;;19.12;100.00;95180.91;5028072;28;20041;-72
2022/08/08 05:27:32;;;;;;;17.85;13.63;;;;;;;19.18;100.00;95185.88;5035452;28;20048;-71
2022/08/08 05:30:09;;;;;;;23.42;14.32;;;;;;;19.17;100.00;95189.56;5030835;28;20049;-71
2022/08/08 05:32:42;;;;;;;;;;;;;;;19.24;100.00;95190.03;5031760;28;20053;-72
2022/08/08 05:35:13;;;;;;;17.75;13.07;;;;;;;19.27;100.00;95194.00;5034188;28;19990;-71
2022/08/08 05:37:49;;;;;;;18.52;13.65;;;;;;;19.33;100.00;95194.75;5035956;28;20041;-71
2022/08/08 05:40:30;;;;;;;20.23;14.68;;;;;;;19.26;100.00;95187.91;5038198;28;20050;-71
2022/08/08 05:43:07;;;;;;;17.80;14.35;;;;;;;19.42;100.00;95193.06;5033171;28;20055;-71
2022/08/08 05:46:03;;;;;;;25.50;14.93;;;;;;;19.42;100.00;95185.94;5033601;28;20044;-71
2022/08/08 05:48:38;;;;;;;19.05;14.35;;;;;;;19.48;100.00;95181.38;5033156;28;20040;-71
2022/08/08 05:51:10;;;;;;;16.77;13.88;;;;;;;19.62;100.00;95190.25;5020389;28;20108;-71
2022/08/08 05:53:45;;;;;;;18.73;12.73;;;;;;;19.72;100.00;95193.88;5037309;28;20431;-70
2022/08/08 05:56:39;;;;;;;18.35;13.90;;;;;;;19.84;100.00;95196.94;5029260;28;20047;-71
2022/08/08 05:59:22;;;;;;;18.27;14.65;;;;;;;20.01;100.00;95196.50;5033943;28;20131;-71
2022/08/08 06:05:20;;;;;;;19.15;14.02;;;;;;;20.39;100.00;95194.72;5045994;28;21473;-71
2022/08/08 06:08:06;;;;;;;20.90;13.13;;;;;;;20.48;100.00;95172.94;5038020;28;20049;-71
2022/08/08 06:10:40;;;;;;;18.45;12.98;;;;;;;20.81;100.00;95193.16;5021534;28;20044;-71
2022/08/08 06:13:10;;;;;;;17.42;12.25;;;;;;;20.88;100.00;95199.94;5037809;28;20056;-71
2022/08/08 06:15:42;;;;;;;13.80;11.48;;;;;;;20.86;100.00;95197.56;5040746;28;20048;-71
2022/08/08 06:18:26;;;;;;;15.32;12.77;;;;;;;21.07;100.00;95206.00;5037540;28;20040;-71
2022/08/08 06:20:57;;;;;;;16.42;12.82;;;;;;;21.15;100.00;95213.28;5038762;28;20045;-72
2022/08/08 06:23:29;;;;;;;14.82;11.13;;;;;;;21.28;100.00;95203.03;5034673;28;20093;-71
2022/08/08 06:26:18;;;;;;;15.98;11.43;;;;;;;21.25;100.00;95196.47;5039058;28;20139;-72
2022/08/08 06:29:09;;;;;;;15.40;11.60;;;;;;;21.53;100.00;95213.22;5049693;28;20451;-70
2022/08/08 06:32:03;;;;;;;15.05;11.20;;;;;;;21.62;100.00;95209.91;5036083;28;20056;-70
2022/08/08 06:34:46;;;;;;;18.77;14.35;;;;;;;21.78;100.00;95211.22;5032538;28;20420;-69
2022/08/08 06:37:37;;;;;;;13.40;10.82;;;;;;;21.87;100.00;95206.81;5034594;28;20045;-68
2022/08/08 06:40:13;;;;;;;16.73;10.68;;;;;;;22.08;100.00;95217.06;5034747;28;20047;-76
2022/08/08 06:42:54;;;;;;;14.43;9.93;;;;;;;22.25;99.74;95217.25;5024928;28;20154;-76
2022/08/08 06:45:31;;;;;;;12.65;10.02;;;;;;;22.30;98.89;95203.91;5031607;28;20455;-76
2022/08/08 06:48:00;;;;;;;17.92;10.20;;;;;;;22.48;99.23;95220.78;5036084;28;20644;-77
2022/08/08 06:50:34;;;;;;;16.95;10.60;;;;;;;22.54;97.47;95224.13;5037395;28;20052;-70
2022/08/08 06:53:07;;;;;;;13.30;10.93;;;;;;;22.67;96.98;95220.69;5036100;28;20473;-68
2022/08/08 06:55:41;;;;;;;14.38;10.30;;;;;;;22.57;97.17;95218.22;5037884;28;20049;-67
2022/08/08 06:58:09;;;;;;;21.45;11.32;;;;;;;22.66;97.45;95229.72;5033832;28;20530;-67
2022/08/08 07:00:42;;;;;;;14.13;9.68;;;;;;;22.88;97.94;95217.56;5034862;28;20048;-68
2022/08/08 07:03:18;;;;;;;13.48;10.88;;;;;;;23.02;96.38;95215.66;5038780;28;20522;-67
2022/08/08 07:06:09;;;;;;;15.60;10.88;;;;;;;23.14;95.32;95225.00;5039167;28;20050;-67
2022/08/08 07:08:44;;;;;;;12.77;9.63;;;;;;;23.27;94.40;95226.81;5035885;28;20076;-67
2022/08/08 07:11:17;;;;;;;11.90;8.82;;;;;;;23.46;94.54;95222.13;5036282;28;20055;-67
2022/08/08 07:13:56;;;;;;;13.63;9.18;;;;;;;23.69;91.84;95224.75;5023089;28;20044;-67
2022/08/08 07:17:01;;;;;;;14.00;9.00;;;;;;;23.95;91.17;95216.13;5039961;28;20041;-68
2022/08/08 07:19:43;;;;;;;14.80;9.60;;;;;;;24.12;90.38;95205.56;5058445;28;20040;-68
2022/08/08 07:22:22;;;;;;;11.75;8.98;;;;;;;24.15;87.37;95196.97;5038849;28;20048;-76
2022/08/08 07:25:00;;;;;;;11.73;8.35;;;;;;;24.40;86.71;95210.66;5038600;28;20041;-76
2022/08/08 07:27:36;;;;;;;14.52;9.18;;;;;;;24.54;87.72;95211.38;5020002;28;20049;-76
2022/08/08 07:30:24;;;;;;;15.30;9.70;;;;;;;24.68;85.65;95221.09;5038852;28;20754;-72
2022/08/08 07:32:56;;;;;;;12.00;7.93;;;;;;;24.75;84.49;95213.41;5033093;28;20139;-72
2022/08/08 07:35:29;;;;;;;13.25;8.65;;;;;;;24.70;81.66;95209.00;5037258;28;20139;-70
2022/08/08 07:38:03;;;;;;;11.52;8.23;;;;;;;24.97;82.60;95223.16;5019302;28;20131;-71
2022/08/08 07:40:57;;;;;;;13.13;7.72;;;;;;;25.16;78.69;95225.50;5041109;28;20430;-74
2022/08/08 07:43:32;;;;;;;10.02;6.85;;;;;;;25.37;73.46;95226.47;5041408;28;20438;-68
2022/08/08 07:46:05;;;;;;;7.68;6.78;;;;;;;25.52;72.83;95221.75;5038288;28;20952;-69
2022/08/08 07:48:56;;;;;;;17.02;7.35;;;;;;;25.70;74.71;95228.59;5037320;28;20617;-69
2022/08/08 07:51:26;;;;;;;17.98;6.93;;;;;;;25.78;73.89;95219.00;5035736;28;20052;-68
2022/08/08 07:54:21;;;;;;;14.20;7.90;;;;;;;26.10;73.83;95217.66;5029921;28;20770;-68
2022/08/08 07:57:29;;;;;;;14.93;6.80;;;;;;;26.43;72.05;95217.03;5052972;28;20127;-74
2022/08/08 08:00:12;;;;;;;18.08;7.35;;;;;;;26.48;72.27;95208.84;5032017;28;20534;-74
2022/08/08 08:03:03;;;;;;;14.95;6.93;;;;;;;26.69;70.06;95208.91;5035855;28;20048;-74
2022/08/08 08:05:37;;;;;;;13.15;7.40;;;;;;;26.96;68.78;95217.53;5033931;28;20139;-73
2022/08/08 08:08:18;;;;;;;12.45;6.93;;;;;;;27.08;67.04;95220.25;5030072;28;20040;-73
2022/08/08 08:10:55;;;;;;;19.30;6.43;;;;;;;27.35;64.00;95217.38;5024786;28;20491;-74
2022/08/08 08:13:55;;;;;;;16.60;7.15;;;;;;;27.58;62.38;95215.91;5034279;28;20052;-73
2022/08/08 08:16:40;;;;;;;13.40;6.35;;;;;;;27.91;61.03;95206.28;5030496;28;20041;-73
2022/08/08 08:19:16;;;;;;;8.65;5.60;;;;;;;28.15;58.47;95205.56;5037982;28;20040;-69
2022/08/08 08:21:47;;;;;;;9.52;6.22;;;;;;;28.31;55.65;95197.63;5032669;28;20124;-72
2022/08/08 08:24:40;;;;;;;9.90;5.35;;;;;;;28.50;54.11;95194.38;5036664;28;20210;-71
2022/08/08 08:27:10;;;;;;;11.77;5.35;;;;;;;28.59;48.28;95197.72;5034112;28;20061;-70
2022/08/08 08:29:44;;;;;;;8.02;4.65;;;;;;;28.83;48.02;95202.28;5055240;28;20518;-69
2022/08/08 08:32:19;;;;;;;8.55;4.43;;;;;;;29.20;48.72;95188.00;5020092;28;20130;-68
2022/08/08 08:35:04;;;;;;;4.35;3.08;;;;;;;29.58;43.34;95203.56;5043204;28;20067;-68
2022/08/08 08:37:33;;;;;;;3.05;1.83;;;;;;;29.97;36.32;95203.06;5033736;28;20040;-69
2022/08/08 08:40:21;;;;;;;8.43;2.67;;;;;;;30.34;35.24;95205.47;5018256;28;20084;-66
2022/08/08 08:42:53;;;;;;;9.27;1.80;;;;;;;30.68;35.88;95199.34;5034490;28;20514;-66
2022/08/08 08:45:23;;;;;;;3.55;1.90;;;;;;;30.90;33.35;95194.44;5051047;28;20044;-65
2022/08/08 08:47:57;;;;;;;5.75;2.55;;;;;;;31.03;33.54;95192.41;5035192;28;20440;-66
2022/08/08 08:50:33;;;;;;;2.95;2.45;;;;;;;31.18;32.97;95194.22;5035061;28;20434;-66
2022/08/08 08:53:09;;;;;;;3.50;2.30;;;;;;;31.16;31.11;95195.72;5032303;28;20471;-66
2022/08/08 08:56:05;;;;;;;3.35;1.90;;;;;;;31.13;31.52;95191.06;5035812;28;20072;-66
2022/08/08 08:58:42;;;;;;;6.00;1.90;;;;;;;31.17;32.74;95186.50;5035222;28;20124;-66
2022/08/08 09:01:26;;;;;;;5.55;2.08;;;;;;;31.44;31.38;95198.97;5024118;28;20051;-66
2022/08/08 09:04:06;;;;;;;7.18;2.03;;;;;;;31.68;31.57;95194.41;5023474;28;20060;-66
2022/08/08 09:06:57;;;;;;;3.55;1.92;;;;;;;31.83;29.46;95190.81;5032152;28;20049;-66
2022/08/08 09:12:49;;;;;;;4.90;2.15;;;;;;;31.92;31.56;95187.91;5091637;27;20135;-68
2022/08/08 09:15:18;;;;;;;5.50;1.88;;;;;;;31.64;29.33;95193.59;5074590;28;20137;-68
2022/08/08 09:18:06;;;;;;;7.32;2.58;;;;;;;31.05;30.95;95190.13;5094250;28;20039;-67
2022/08/08 09:20:39;;;;;;;5.18;2.10;;;;;;;30.86;31.06;95185.50;5109428;27;20075;-67
2022/08/08 09:23:28;;;;;;;6.50;1.92;;;;;;;30.91;30.68;95185.22;5080171;28;20043;-69
2022/08/08 09:26:31;;;;;;;7.00;2.25;;;;;;;31.25;29.53;95188.22;5073636;28;20128;-68
2022/08/08 09:29:12;;;;;;;6.43;2.40;;;;;;;30.90;29.10;95172.91;5094305;28;20048;-73
2022/08/08 09:32:04;;;;;;;8.75;2.33;;;;;;;30.49;30.70;95172.44;5095989;27;20858;-74
2022/08/08 09:34:46;;;;;;;8.32;2.70;;;;;;;30.28;31.63;95170.78;5074176;28;20077;-69
2022/08/08 09:37:25;;;;;;;4.25;2.42;;;;;;;30.39;31.19;95159.53;5072131;28;20128;-69
2022/08/08 09:40:17;;;;;;;4.30;2.15;;;;;;;30.21;31.56;95164.47;5076758;28;20083;-68
2022/08/08 09:43:07;;;;;;;6.57;2.25;;;;;;;30.18;31.66;95155.22;5090919;28;20140;-68
2022/08/08 09:46:01;;;;;;;3.35;2.30;;;;;;;30.22;31.72;95160.66;5092535;28;20722;-68
2022/08/08 09:48:34;;;;;;;4.25;2.28;;;;;;;30.25;33.10;95150.00;5089355;28;20050;-68
2022/08/08 09:51:04;;;;;;;4.60;2.33;;;;;;;29.93;32.38;95133.94;5095334;28;20860;-68
2022/08/08 09:56:33;;;;;;;4.85;2.35;;;;;;;30.13;34.25;95142.06;5107683;27;20140;-71
2022/08/08 09:59:12;;;;;;;2.97;2.25;;;;;;;30.40;31.53;95140.38;5093267;28;20055;-67
2022/08/08 10:02:02;;;;;;;2.88;2.03;;;;;;;30.66;31.08;95147.81;5092522;28;20035;-67
2022/08/08 10:04:41;;;;;;;14.27;2.88;;;;;;;30.91;31.02;95138.72;5090502;28;20048;-68
2022/08/08 10:07:15;;;;;;;7.35;2.35;;;;;;;30.93;30.15;95145.34;5078170;28;20085;-67
2022/08/08 10:09:50;;;;;;;8.35;2.20;;;;;;;31.09;31.53;95147.19;5096252;28;20063;-67
2022/08/08 10:12:38;;;;;;;3.60;1.83;;;;;;;31.59;29.75;95129.28;5082799;28;20048;-67
2022/08/08 10:15:24;;;;;;;2.83;2.05;;;;;;;31.48;30.33;95125.59;5097870;28;20043;-68
2022/08/08 10:17:54;;;;;;;2.95;2.15;;;;;;;31.41;30.57;95132.41;5099858;28;20135;-69
2022/08/08 10:20:46;;;;;;;9.95;2.63;;;;;;;30.98;30.08;95136.22;5099789;28;20039;-68
2022/08/08 10:23:45;;;;;;;3.08;2.10;;;;;;;31.18;31.06;95123.53;5100517;28;21487;-69
2022/08/08 10:26:25;;;;;;;3.17;2.20;;;;;;;31.15;30.34;95118.84;5094559;28;20097;-69
2022/08/08 10:29:08;;;;;;;4.22;1.92;;;;;;;31.44;30.40;95120.94;5094604;28;20129;-77
2022/08/08 10:34:28;;;;;;;3.63;2.53;;;;;;;32.47;29.39;95122.16;5095321;28;20039;-76
2022/08/08 10:36:58;;;;;;;4.25;2.25;;;;;;;32.81;28.97;95122.22;5100629;28;20109;-77
2022/08/08 10:39:28;;;;;;;9.10;2.60;;;;;;;33.13;28.54;95122.59;5085152;28;20035;-77
2022/08/08 10:42:16;;;;;;;9.27;2.78;;;;;;;33.58;29.29;95120.72;5102467;28;20040;-76
2022/08/08 10:44:43;;;;;;;5.75;2.63;;;;;;;33.89;27.65;95126.81;5105785;28;20571;-77
2022/08/08 10:47:13;;;;;;;3.75;2.00;;;;;;;34.20;27.63;95116.63;5098508;28;20050;-77
2022/08/08 10:49:51;;;;;;;2.90;2.53;;;;;;;34.52;26.19;95116.03;5095254;28;20035;-72
2022/08/08 10:52:35;;;;;;;7.38;2.75;;;;;;;34.13;25.83;95105.75;5064705;28;20061;-69
2022/08/08 10:55:09;;;;;;;33.25;3.33;;;;;;;33.48;27.39;95110.63;5105758;28;20097;-68
2022/08/08 10:57:39;;;;;;;4.55;2.85;;;;;;;33.30;28.28;95100.44;5098836;28;20035;-69
2022/08/08 11:00:24;;;;;;;5.70;2.92;;;;;;;33.65;27.65;95110.03;5096767;28;20110;-69
2022/08/08 11:02:55;;;;;;;5.78;2.30;;;;;;;33.51;27.71;95104.47;5094242;28;20135;-69
2022/08/08 11:05:26;;;;;;;3.65;2.70;;;;;;;33.26;28.11;95113.13;5095803;28;20147;-69
2022/08/08 11:08:04;;;;;;;5.80;2.63;;;;;;;33.53;28.23;95107.59;5083639;28;20791;-70
2022/08/08 11:11:01;;;;;;;3.28;2.10;;;;;;;33.64;27.88;95102.28;5082953;28;20618;-69
2022/08/08 11:13:49;;;;;;;5.80;2.80;;;;;;;34.18;26.37;95113.53;5080771;28;20046;-69
2022/08/08 11:16:28;;;;;;;8.35;2.63;;;;;;;34.45;26.13;95122.19;5080053;28;20119;-69
2022/08/08 11:19:00;;;;;;;3.63;2.38;;;;;;;34.15;25.33;95111.56;5081250;28;20047;-69
2022/08/08 11:21:29;;;;;;;2.95;1.92;;;;;;;34.29;25.92;95111.69;5081612;28;20058;-69
2022/08/08 11:24:04;;;;;;;6.15;2.22;;;;;;;34.37;27.24;95115.19;5078301;28;20048;-70
2022/08/08 11:26:35;;;;;;;6.50;2.50;;;;;;;34.31;26.89;95122.88;5083254;28;20051;-69
2022/08/08 11:29:22;;;;;;;8.90;2.70;;;;;;;34.38;28.03;95120.22;5078955;28;20066;-68
2022/08/08 11:32:11;;;;;;;6.82;3.05;;;;;;;34.21;27.51;95118.19;5062504;28;20044;-68
2022/08/08 11:34:45;;;;;;;6.47;3.30;;;;;;;34.38;26.53;95117.50;5078513;28;20743;-69
2022/08/08 11:37:33;;;;;;;3.28;2.80;;;;;;;34.42;27.29;95106.72;5081754;28;20054;-69
2022/08/08 11:40:20;;;;;;;13.13;3.75;;;;;;;34.49;28.46;95095.19;5078229;28;20039;-69
2022/08/08 11:42:54;;;;;;;4.33;2.70;;;;;;;34.30;28.41;95097.00;5065918;28;20044;-67
2022/08/08 11:45:22;;;;;;;5.40;2.95;;;;;;;34.33;29.46;95098.94;5079250;28;20122;-68
2022/08/08 11:47:51;;;;;;;6.28;2.83;;;;;;;34.47;28.45;95090.91;5082581;28;20076;-68
2022/08/08 11:50:31;;;;;;;8.05;3.45;;;;;;;34.87;27.99;95087.63;5079703;28;20047;-73
2022/08/08 11:53:01;;;;;;;7.47;2.92;;;;;;;35.11;27.70;95086.91;5065351;28;20044;-68
2022/08/08 11:55:34;;;;;;;5.18;3.30;;;;;;;35.36;27.31;95091.63;5079427;28;20128;-68
2022/08/08 11:58:02;;;;;;;6.95;2.67;;;;;;;35.18;25.58;95086.91;5080080;28;20055;-69
2022/08/08 12:00:50;;;;;;;3.85;2.30;;;;;;;35.17;23.38;95090.78;5073588;28;20176;-68
2022/08/08 12:03:24;;;;;;;9.25;2.38;;;;;;;35.41;24.41;95088.53;5094773;28;20044;-69
2022/08/08 12:05:56;;;;;;;7.60;2.42;;;;;;;35.63;24.34;95085.84;5086533;28;20039;-68
2022/08/08 12:08:33;;;;;;;5.65;2.53;;;;;;;36.03;24.18;95078.47;5087166;28;20040;-68
2022/08/08 12:11:02;;;;;;;3.33;2.70;;;;;;;35.87;24.58;95081.59;5062688;28;20151;-68
2022/08/08 12:13:30;;;;;;;6.70;2.20;;;;;;;36.34;22.83;95077.69;5081195;28;20094;-68
2022/08/08 12:16:19;;;;;;;5.85;2.22;;;;;;;36.60;21.31;95077.59;5078051;28;20039;-68
2022/08/08 12:19:00;;;;;;;4.53;2.22;;;;;;;36.76;20.69;95071.75;5084343;28;20036;-68
2022/08/08 12:21:32;;;;;;;;;;;;;;;36.72;21.13;95077.94;5065527;28;20046;-73
2022/08/08 12:24:21;;;;;;;7.80;2.13;;;;;;;37.22;21.66;95062.59;5090879;28;19924;-72
2022/08/08 12:26:54;;;;;;;5.13;1.85;;;;;;;37.78;20.37;95057.91;5080109;28;20032;-72
2022/08/08 12:29:35;;;;;;;3.05;2.15;;;;;;;38.11;20.07;95066.56;5066887;28;20161;-73
2022/08/08 12:32:14;;;;;;;2.33;1.75;;;;;;;38.22;18.71;95067.22;5070182;28;20049;-72
2022/08/08 12:34:55;;;;;;;6.50;2.00;;;;;;;38.50;19.04;95073.53;5090124;28;20044;-71
2022/08/08 12:37:33;;;;;;;3.70;1.88;;;;;;;38.86;19.45;95070.41;5064593;28;20865;-72
2022/08/08 12:40:17;;;;;;;3.42;1.58;;;;;;;39.21;17.76;95067.63;5087680;28;20039;-72
2022/08/08 12:42:51;;;;;;;3.42;1.60;;;;;;;39.22;18.71;95059.03;5083899;28;20051;-70
2022/08/08 12:45:18;;;;;;;4.70;2.28;;;;;;;38.75;20.10;95075.19;5086685;28;20460;-69
2022/08/08 12:48:20;;;;;;;3.97;2.50;;;;;;;37.58;21.46;95067.75;5086333;28;20036;-69
2022/08/08 12:51:05;;;;;;;9.75;2.08;;;;;;;37.50;20.62;95062.38;5087694;28;20050;-68
2022/08/08 12:53:43;;;;;;;;;;;;;;;37.02;19.66;95076.63;5084498;28;20040;-67